Time;durP1;ratioP1;P1;durP2;ratioP2;P2;SDS_P1;SDS_P2;PMS_P1;PMS_P2;Temp;Humidity;BMP_temperature;BMP_pressure;BME280_temperature;BME280_humidity;BME280_pressure;Samples;Min_cycle;Max_cycle;Signal;HPM_P1;HPM_P2
2022/05/04 00:01:15;;;;;;;5.60;5.03;;;12.60;1.00;;;;;;5064850;28;20453;-79
2022/05/04 00:03:41;;;;;;;8.67;5.83;;;12.40;99.90;;;;;;5066056;28;20477;-78
2022/05/04 00:06:09;;;;;;;6.90;5.20;;;12.50;99.90;;;;;;5068007;28;20476;-77
2022/05/04 00:08:37;;;;;;;7.33;6.63;;;;;;;;;;5066244;28;20457;-77
2022/05/04 00:11:04;;;;;;;7.33;5.70;;;12.50;99.90;;;;;;5063077;28;20481;-77
2022/05/04 00:13:32;;;;;;;6.10;5.50;;;12.50;1.00;;;;;;5069554;28;20452;-77
2022/05/04 00:16:01;;;;;;;7.67;5.93;;;12.40;99.90;;;;;;5061416;28;20442;-77
2022/05/04 00:18:27;;;;;;;5.73;5.23;;;12.20;1.00;;;;;;5056585;28;20821;-78
2022/05/04 00:20:54;;;;;;;6.47;5.87;;;11.70;1.00;;;;;;5056293;28;20469;-79
2022/05/04 00:23:20;;;;;;;5.90;5.40;;;11.90;98.60;;;;;;5056180;28;20481;-78
2022/05/04 00:25:47;;;;;;;6.00;5.10;;;11.90;99.90;;;;;;5055774;28;20484;-79
2022/05/04 00:28:14;;;;;;;5.97;5.37;;;;;;;;;;5055785;28;20449;-80
2022/05/04 00:30:41;;;;;;;6.97;5.50;;;;;;;;;;5055588;28;20512;-78
2022/05/04 00:33:09;;;;;;;6.33;5.80;;;11.80;1.00;;;;;;5056112;28;20452;-79
2022/05/04 00:35:36;;;;;;;6.73;5.70;;;;;;;;;;5056681;28;20440;-79
2022/05/04 00:38:03;;;;;;;6.57;5.60;;;11.90;1.00;;;;;;5056914;28;20470;-79
2022/05/04 00:40:29;;;;;;;6.20;5.67;;;11.80;1.00;;;;;;5057706;28;20469;-79
2022/05/04 00:42:56;;;;;;;7.63;6.33;;;11.80;1.00;;;;;;5056298;28;21046;-79
2022/05/04 00:45:23;;;;;;;15.80;6.47;;;11.80;1.00;;;;;;5055996;28;20502;-79
2022/05/04 00:47:49;;;;;;;7.17;6.20;;;11.70;1.00;;;;;;5056290;28;20416;-79
2022/05/04 00:50:17;;;;;;;6.97;5.60;;;11.50;1.00;;;;;;5057547;28;20503;-79
2022/05/04 00:52:46;;;;;;;7.40;6.70;;;11.50;1.00;;;;;;5065419;28;20451;-78
2022/05/04 00:55:17;;;;;;;10.53;6.80;;;11.50;1.00;;;;;;5063359;28;20584;-78
2022/05/04 01:00:29;;;;;;;8.47;7.53;;;11.30;1.00;;;;;;5055466;28;20546;-79
2022/05/04 01:02:55;;;;;;;7.60;6.87;;;11.40;1.00;;;;;;5056357;28;20424;-79
2022/05/04 01:05:23;;;;;;;8.10;7.10;;;11.40;1.00;;;;;;5055954;28;20824;-79
2022/05/04 01:07:52;;;;;;;8.67;6.70;;;11.40;1.00;;;;;;5057831;28;20454;-79
2022/05/04 01:10:18;;;;;;;7.93;7.13;;;11.50;1.00;;;;;;5055985;28;20492;-79
2022/05/04 01:12:48;;;;;;;7.60;6.90;;;11.40;1.00;;;;;;5055740;28;20446;-79
2022/05/04 01:15:15;;;;;;;10.23;7.07;;;11.30;1.00;;;;;;5056197;28;20472;-78
2022/05/04 01:17:42;;;;;;;7.73;7.10;;;11.30;1.00;;;;;;5060763;28;20481;-78
2022/05/04 01:20:10;;;;;;;10.93;7.80;;;11.30;1.00;;;;;;5077407;28;20466;-77
2022/05/04 01:22:38;;;;;;;11.87;8.00;;;11.20;1.00;;;;;;5077513;28;20418;-77
2022/05/04 01:25:06;;;;;;;11.20;7.63;;;11.20;1.00;;;;;;5058764;28;20469;-77
2022/05/04 01:27:33;;;;;;;10.93;7.37;;;11.10;1.00;;;;;;5055571;28;20474;-78
2022/05/04 01:29:59;;;;;;;8.43;7.33;;;11.20;1.00;;;;;;5054338;28;21098;-79
2022/05/04 01:32:26;;;;;;;9.90;7.03;;;11.10;1.00;;;;;;5054509;28;20484;-78
2022/05/04 01:34:53;;;;;;;12.97;8.00;;;11.00;1.00;;;;;;5054847;28;20463;-78
2022/05/04 01:37:19;;;;;;;10.87;8.13;;;11.00;1.00;;;;;;5055088;28;20902;-79
2022/05/04 01:39:47;;;;;;;8.97;7.70;;;11.20;1.00;;;;;;5054983;28;20509;-79
2022/05/04 01:42:15;;;;;;;7.87;7.00;;;11.20;1.00;;;;;;5055375;28;20484;-80
2022/05/04 01:44:44;;;;;;;7.83;6.20;;;11.00;1.00;;;;;;5055369;28;20450;-80
2022/05/04 01:47:10;;;;;;;8.33;7.50;;;10.90;1.00;;;;;;5055588;28;20754;-80
2022/05/04 01:49:37;;;;;;;9.00;7.03;;;10.90;1.00;;;;;;5055593;28;20473;-80
2022/05/04 01:52:05;;;;;;;9.53;6.77;;;11.30;1.00;;;;;;5055722;28;20519;-80
2022/05/04 01:54:31;;;;;;;7.83;7.03;;;10.90;1.00;;;;;;5055424;28;20784;-80
2022/05/04 01:56:59;;;;;;;7.80;7.10;;;10.80;1.00;;;;;;5055433;28;20548;-79
2022/05/04 01:59:26;;;;;;;8.90;7.33;;;10.80;1.00;;;;;;5055278;28;20477;-79
2022/05/04 02:01:53;;;;;;;7.20;6.60;;;10.80;1.00;;;;;;5061105;28;20481;-78
2022/05/04 02:04:20;;;;;;;10.03;7.27;;;10.80;1.00;;;;;;5067281;28;20420;-78
2022/05/04 02:06:48;;;;;;;7.82;7.03;;;11.10;1.00;;;;;;5065434;28;20422;-79
2022/05/04 02:09:14;;;;;;;8.50;7.70;;;10.70;1.00;;;;;;5058509;28;20238;-79
2022/05/04 02:11:41;;;;;;;7.60;6.67;;;10.60;1.00;;;;;;5058904;28;20517;-79
2022/05/04 02:14:09;;;;;;;8.87;6.73;;;10.70;1.00;;;;;;5059333;28;20473;-79
2022/05/04 02:16:35;;;;;;;9.20;7.97;;;10.60;1.00;;;;;;5059283;28;20420;-79
2022/05/04 02:19:02;;;;;;;10.00;7.97;;;10.40;1.00;;;;;;5059372;28;20477;-79
2022/05/04 02:21:29;;;;;;;15.70;8.90;;;10.40;1.00;;;;;;5059909;28;20420;-79
2022/05/04 02:23:56;;;;;;;13.10;8.97;;;;;;;;;;5060336;28;20461;-79
2022/05/04 02:26:22;;;;;;;13.23;8.60;;;10.40;1.00;;;;;;5060468;28;20479;-79
2022/05/04 02:28:49;;;;;;;15.10;10.33;;;10.40;1.00;;;;;;5060827;28;20500;-79
2022/05/04 02:31:17;;;;;;;10.77;8.70;;;10.30;1.00;;;;;;5060498;28;20976;-80
2022/05/04 02:33:44;;;;;;;12.13;9.50;;;10.30;1.00;;;;;;5060598;28;20453;-79
2022/05/04 02:38:55;;;;;;;9.27;8.30;;;10.20;10.40;;;;;;5068347;28;20476;-79
2022/05/04 02:41:22;;;;;;;10.27;8.80;;;10.20;25.80;;;;;;5067998;28;20554;-79
2022/05/04 02:43:48;;;;;;;10.63;7.83;;;10.30;24.80;;;;;;5064399;28;20941;-79
2022/05/04 02:46:17;;;;;;;9.70;8.20;;;10.30;15.10;;;;;;5064197;28;20453;-80
2022/05/04 02:48:44;;;;;;;9.10;7.80;;;10.30;13.10;;;;;;5064207;28;20466;-80
2022/05/04 02:51:11;;;;;;;9.47;8.13;;;10.20;25.50;;;;;;5063015;28;20870;-81
2022/05/04 02:53:37;;;;;;;7.93;7.03;;;10.00;59.90;;;;;;5064693;28;20477;-79
2022/05/04 02:56:06;;;;;;;8.30;7.00;;;10.30;36.30;;;;;;5067961;28;20464;-78
2022/05/04 02:58:33;;;;;;;12.27;7.97;;;10.20;39.00;;;;;;5071535;28;20474;-78
2022/05/04 03:03:52;;;;;;;10.03;9.10;;;10.20;79.00;;;;;;5069561;28;20486;-79
2022/05/04 03:06:19;;;;;;;9.97;9.07;;;10.10;47.30;;;;;;5070226;28;20453;-78
2022/05/04 03:08:45;;;;;;;9.23;8.10;;;10.00;49.70;;;;;;5069861;28;20462;-78
2022/05/04 03:13:56;;;;;;;9.23;8.20;;;10.10;47.20;;;;;;5061433;28;20406;-79
2022/05/04 03:16:23;;;;;;;9.87;8.13;;;10.10;46.90;;;;;;5058215;28;20516;-79
2022/05/04 03:18:49;;;;;;;9.17;8.27;;;10.10;45.10;;;;;;5058674;28;20465;-78
2022/05/04 03:21:17;;;;;;;10.03;8.47;;;10.20;43.50;;;;;;5059480;28;20556;-78
2022/05/04 03:23:44;;;;;;;9.30;7.93;;;10.20;47.30;;;;;;5058361;28;20421;-80
2022/05/04 03:26:10;;;;;;;9.47;8.23;;;10.40;63.80;;;;;;5058285;28;20800;-77
2022/05/04 03:28:37;;;;;;;15.77;8.60;;;10.40;67.60;;;;;;5058325;28;20492;-78
2022/05/04 03:31:04;;;;;;;8.57;7.80;;;10.40;61.50;;;;;;5058207;28;20524;-79
2022/05/04 03:33:30;;;;;;;11.23;8.90;;;10.20;35.10;;;;;;5056951;28;20476;-79
2022/05/04 03:35:57;;;;;;;16.83;9.10;;;10.40;48.90;;;;;;5058423;28;20325;-79
2022/05/04 03:38:25;;;;;;;7.60;6.87;;;10.40;19.10;;;;;;5056027;28;20507;-79
2022/05/04 03:40:52;;;;;;;11.27;8.50;;;10.40;21.70;;;;;;5060659;28;20500;-77
2022/05/04 03:43:18;;;;;;;10.47;8.63;;;;;;;;;;5060932;28;20872;-78
2022/05/04 03:45:47;;;;;;;10.47;7.20;;;10.40;23.00;;;;;;5061161;28;20441;-78
2022/05/04 03:48:14;;;;;;;9.33;8.27;;;10.40;49.20;;;;;;5067728;28;20424;-78
2022/05/04 03:50:40;;;;;;;9.23;8.27;;;10.40;24.40;;;;;;5067126;28;20500;-77
2022/05/04 03:53:07;;;;;;;8.40;7.60;;;10.60;46.30;;;;;;5074386;28;20457;-77
2022/05/04 03:55:35;;;;;;;9.30;7.73;;;10.40;20.10;;;;;;5078615;28;20432;-78
2022/05/04 03:58:02;;;;;;;9.10;8.27;;;10.20;21.00;;;;;;5075533;28;20446;-77
2022/05/04 04:00:29;;;;;;;9.70;8.23;;;10.30;30.20;;;;;;5066759;28;20477;-78
2022/05/04 04:02:55;;;;;;;11.93;9.33;;;10.50;8.40;;;;;;5064192;28;20442;-79
2022/05/04 04:05:23;;;;;;;10.40;9.10;;;10.40;17.10;;;;;;5060359;28;20830;-81
2022/05/04 04:07:49;;;;;;;11.43;9.80;;;10.00;20.10;;;;;;5059503;28;20454;-79
2022/05/04 04:10:16;;;;;;;11.80;10.03;;;10.60;9.00;;;;;;5067507;28;20473;-78
2022/05/04 04:12:44;;;;;;;10.97;9.20;;;10.60;1.00;;;;;;5063671;28;20513;-80
2022/05/04 04:15:11;;;;;;;8.47;7.50;;;10.70;1.00;;;;;;5057280;28;20485;-77
2022/05/04 04:17:37;;;;;;;9.23;8.30;;;10.60;1.00;;;;;;5056400;28;20527;-78
2022/05/04 04:22:49;;;;;;;9.90;8.93;;;10.80;1.00;;;;;;5058542;28;20419;-79
2022/05/04 04:25:16;;;;;;;13.70;8.43;;;10.90;1.00;;;;;;5060049;28;20473;-79
2022/05/04 04:27:44;;;;;;;10.90;7.93;;;10.90;1.00;;;;;;5059036;28;20475;-79
2022/05/04 04:30:12;;;;;;;12.10;8.90;;;11.50;1.00;;;;;;5059551;28;20465;-79
2022/05/04 04:32:40;;;;;;;14.23;9.00;;;11.00;1.00;;;;;;5058108;28;20627;-80
2022/05/04 04:35:08;;;;;;;10.87;9.73;;;11.10;1.00;;;;;;5058456;28;20453;-78
2022/05/04 04:37:35;;;;;;;10.63;9.47;;;11.10;1.00;;;;;;5058775;28;20416;-79
2022/05/04 04:40:01;;;;;;;8.80;7.90;;;11.20;1.00;;;;;;5058918;28;20523;-78
2022/05/04 04:42:28;;;;;;;9.50;7.87;;;11.20;1.00;;;;;;5059244;28;20421;-78
2022/05/04 04:44:56;;;;;;;15.97;9.03;;;11.20;1.00;;;;;;5058760;28;20441;-78
2022/05/04 04:47:23;;;;;;;10.43;8.85;;;;;;;;;;5057598;28;20802;-79
2022/05/04 04:49:49;;;;;;;10.30;9.00;;;11.30;1.00;;;;;;5056558;28;20318;-79
2022/05/04 04:52:16;;;;;;;11.53;8.90;;;11.20;1.00;;;;;;5057067;28;20488;-78
2022/05/04 04:54:44;;;;;;;12.30;10.03;;;;;;;;;;5057399;28;20856;-80
2022/05/04 04:57:10;;;;;;;9.70;8.70;;;;;;;;;;5056563;28;20457;-79
2022/05/04 04:59:37;;;;;;;13.37;9.00;;;11.50;1.00;;;;;;5056100;28;20531;-79
2022/05/04 05:02:05;;;;;;;11.20;9.43;;;11.60;1.00;;;;;;5056253;28;20959;-79
2022/05/04 05:04:32;;;;;;;9.90;8.33;;;11.80;1.00;;;;;;5056176;28;20964;-79
2022/05/04 05:06:58;;;;;;;10.10;9.10;;;11.60;1.00;;;;;;5056227;28;20450;-77
2022/05/04 05:09:25;;;;;;;14.43;11.10;;;;;;;;;;5055884;28;21057;-78
2022/05/04 05:11:52;;;;;;;17.67;12.00;;;;;;;;;;5055597;28;20547;-79
2022/05/04 05:17:05;;;;;;;13.30;9.80;;;11.80;99.90;;;;;;5057576;28;20789;-79
2022/05/04 05:19:32;;;;;;;10.90;9.67;;;11.80;99.90;;;;;;5056716;28;20964;-79
2022/05/04 05:21:58;;;;;;;12.67;8.90;;;12.00;99.90;;;;;;5055514;28;20917;-80
2022/05/04 05:24:25;;;;;;;10.97;9.87;;;11.90;99.90;;;;;;5056254;28;20545;-78
2022/05/04 05:26:51;;;;;;;15.47;10.93;;;11.90;99.90;;;;;;5056139;28;20504;-79
2022/05/04 05:29:18;;;;;;;11.17;9.77;;;12.00;99.90;;;;;;5057661;28;20477;-79
2022/05/04 05:31:45;;;;;;;10.27;9.17;;;12.00;99.90;;;;;;5057434;28;20481;-80
2022/05/04 05:34:13;;;;;;;10.43;8.97;;;12.10;99.90;;;;;;5056974;28;20975;-80
2022/05/04 05:36:40;;;;;;;12.60;9.17;;;12.10;19.30;;;;;;5056920;28;20445;-80
2022/05/04 05:39:06;;;;;;;13.40;10.77;;;12.20;99.90;;;;;;5059461;28;20496;-79
2022/05/04 05:41:33;;;;;;;13.47;9.00;;;12.30;99.90;;;;;;5063928;28;20441;-79
2022/05/04 05:44:00;;;;;;;10.73;9.00;;;12.30;99.90;;;;;;5060518;28;20473;-79
2022/05/04 05:46:28;;;;;;;14.80;11.13;;;12.50;1.00;;;;;;5065057;28;20449;-78
2022/05/04 05:48:55;;;;;;;11.20;9.03;;;12.60;1.00;;;;;;5060505;28;20508;-79
2022/05/04 05:51:22;;;;;;;10.37;9.23;;;12.60;1.00;;;;;;5057684;28;20481;-79
2022/05/04 05:53:49;;;;;;;10.00;9.07;;;12.80;99.90;;;;;;5056603;28;20481;-79
2022/05/04 05:56:16;;;;;;;10.73;9.53;;;12.90;1.00;;;;;;5057146;28;20438;-79
2022/05/04 05:58:42;;;;;;;11.90;10.30;;;12.70;1.00;;;;;;5056702;28;20507;-78
2022/05/04 06:01:09;;;;;;;24.40;15.10;;;12.80;99.90;;;;;;5057232;28;20431;-79
2022/05/04 06:03:35;;;;;;;10.83;9.67;;;13.00;99.90;;;;;;5057420;28;20446;-80
2022/05/04 06:06:02;;;;;;;9.20;8.30;;;12.90;1.00;;;;;;5057345;28;20457;-80
2022/05/04 06:08:30;;;;;;;12.53;10.23;;;13.10;99.90;;;;;;5057271;28;20957;-79
2022/05/04 06:10:57;;;;;;;11.30;9.23;;;12.90;99.90;;;;;;5058764;28;20451;-79
2022/05/04 06:13:23;;;;;;;11.70;9.57;;;12.90;99.90;;;;;;5057911;28;20487;-79
2022/05/04 06:15:50;;;;;;;12.57;10.30;;;12.70;99.90;;;;;;5057489;28;20447;-79
2022/05/04 06:18:16;;;;;;;24.73;19.60;;;12.90;97.80;;;;;;5058028;28;20884;-80
2022/05/04 06:20:44;;;;;;;11.40;9.40;;;12.80;1.00;;;;;;5057448;28;20523;-81
2022/05/04 06:23:10;;;;;;;13.77;9.23;;;12.90;1.00;;;;;;5062569;28;20517;-79
2022/05/04 06:25:41;;;;;;;14.10;9.77;;;13.00;99.90;;;;;;5062654;28;20454;-79
2022/05/04 06:28:07;;;;;;;12.40;9.67;;;13.10;76.40;;;;;;5070470;28;20424;-77
2022/05/04 06:36:05;;;;;;;13.47;10.00;;;13.50;1.00;;;;;;5059445;28;20429;-79
2022/05/04 06:38:32;;;;;;;14.97;11.17;;;13.60;99.90;;;;;;5058325;28;20773;-79
2022/05/04 06:41:00;;;;;;;16.77;10.33;;;13.60;99.90;;;;;;5056462;28;20470;-80
2022/05/04 06:43:27;;;;;;;17.83;10.60;;;13.30;57.50;;;;;;5056815;28;20443;-78
2022/05/04 06:45:54;;;;;;;17.40;10.50;;;13.40;72.30;;;;;;5056893;28;20452;-79
2022/05/04 06:48:20;;;;;;;13.47;9.93;;;13.50;1.00;;;;;;5057318;28;20476;-79
2022/05/04 06:50:47;;;;;;;10.33;9.23;;;13.60;1.00;;;;;;5062558;28;20488;-78
2022/05/04 06:53:13;;;;;;;18.07;9.10;;;13.60;1.00;;;;;;5064930;28;20487;-78
2022/05/04 06:55:40;;;;;;;9.30;8.40;;;13.60;1.00;;;;;;5062538;28;20476;-79
2022/05/04 06:58:08;;;;;;;10.27;9.03;;;13.90;1.00;;;;;;5060357;28;20446;-80
2022/05/04 07:03:02;;;;;;;12.83;8.50;;;14.10;99.90;;;;;;5094846;22;20452;-83
2022/05/04 07:05:30;;;;;;;10.70;9.07;;;13.90;1.00;;;;;;5074523;28;20448;-83
2022/05/04 07:08:00;;;;;;;11.10;10.00;;;16.60;99.90;;;;;;5077763;28;20508;-83
2022/05/04 07:10:26;;;;;;;11.70;7.97;;;;;;;;;;5078691;28;20452;-81
2022/05/04 07:12:54;;;;;;;9.00;8.07;;;;;;;;;;5078727;28;20491;-82
2022/05/04 07:15:21;;;;;;;9.33;7.80;;;13.90;99.90;;;;;;5076612;28;20527;-82
2022/05/04 07:17:48;;;;;;;8.73;7.20;;;14.00;99.90;;;;;;5071340;28;20448;-82
2022/05/04 07:20:15;;;;;;;24.73;9.60;;;14.00;99.00;;;;;;5070611;28;20444;-82
2022/05/04 07:22:42;;;;;;;8.30;7.50;;;14.10;1.00;;;;;;5065323;28;20465;-82
2022/05/04 07:25:09;;;;;;;8.83;7.93;;;14.20;99.90;;;;;;5064804;28;20457;-82
2022/05/04 07:27:36;;;;;;;10.20;6.70;;;;;;;;;;5064672;28;20472;-83
2022/05/04 07:30:02;;;;;;;10.60;6.60;;;13.90;32.10;;;;;;5069565;28;20445;-82
2022/05/04 07:32:30;;;;;;;7.27;6.53;;;14.20;1.00;;;;;;5079479;28;20477;-82
2022/05/04 07:34:57;;;;;;;9.07;7.80;;;;;;;;;;5079906;28;20434;-81
2022/05/04 07:37:27;;;;;;;8.53;6.50;;;14.30;1.00;;;;;;5075443;28;20495;-81
2022/05/04 07:42:40;;;;;;;10.80;6.43;;;14.60;1.00;;;;;;5069517;28;20464;-82
2022/05/04 07:45:11;;;;;;;10.43;7.00;;;14.80;1.00;;;;;;5067451;28;20452;-82
2022/05/04 07:47:40;;;;;;;11.13;7.37;;;14.70;1.00;;;;;;5069317;28;20461;-82
2022/05/04 07:50:09;;;;;;;10.27;6.60;;;14.60;1.00;;;;;;5067694;28;20457;-83
2022/05/04 07:52:36;;;;;;;14.30;7.67;;;14.70;1.00;;;;;;5067144;28;20520;-83
2022/05/04 07:55:03;;;;;;;11.10;7.63;;;15.00;1.00;;;;;;5066623;28;20468;-82
2022/05/04 07:57:29;;;;;;;9.20;6.93;;;15.10;1.00;;;;;;5067464;28;20434;-83
2022/05/04 08:05:31;;;;;;;11.00;7.90;;;15.00;1.00;;;;;;5071224;28;20443;-83
2022/05/04 08:07:58;;;;;;;6.67;6.00;;;15.10;1.00;;;;;;5070747;28;20453;-82
2022/05/04 08:10:27;;;;;;;7.20;6.50;;;15.30;1.00;;;;;;5072796;28;20442;-81
2022/05/04 08:12:54;;;;;;;10.30;6.30;;;15.30;1.00;;;;;;5077059;28;20517;-82
2022/05/04 08:15:20;;;;;;;11.57;6.03;;;15.70;1.00;;;;;;5073485;28;20450;-82
2022/05/04 08:17:48;;;;;;;9.70;6.53;;;15.40;1.00;;;;;;5071259;28;20475;-82
2022/05/04 08:20:15;;;;;;;11.73;6.50;;;15.50;1.00;;;;;;5069576;28;20442;-82
2022/05/04 08:22:43;;;;;;;14.27;9.00;;;15.70;1.00;;;;;;5070306;28;20514;-82
2022/05/04 08:25:10;;;;;;;15.10;6.87;;;15.70;1.00;;;;;;5070462;28;20445;-82
2022/05/04 08:27:37;;;;;;;7.50;6.20;;;15.80;1.00;;;;;;5070352;28;20503;-82
2022/05/04 08:30:04;;;;;;;7.73;6.73;;;16.00;1.00;;;;;;5072372;28;20799;-81
2022/05/04 08:32:31;;;;;;;9.87;6.40;;;16.20;1.00;;;;;;5075090;28;20477;-82
2022/05/04 08:35:00;;;;;;;6.67;4.90;;;16.30;1.00;;;;;;5075806;28;20476;-82
2022/05/04 08:37:28;;;;;;;7.10;4.83;;;;;;;;;;5076301;28;20425;-81
2022/05/04 08:39:54;;;;;;;6.80;4.37;;;16.20;99.90;;;;;;5075566;28;20955;-82
2022/05/04 08:42:21;;;;;;;12.10;5.93;;;16.20;1.00;;;;;;5076321;28;20474;-82
2022/05/04 08:44:51;;;;;;;6.40;5.80;;;16.30;1.00;;;;;;5074161;28;20442;-82
2022/05/04 08:47:22;;;;;;;11.57;7.10;;;16.10;99.90;;;;;;5077605;28;20434;-81
2022/05/04 08:49:49;;;;;;;7.17;5.70;;;;;;;;;;5075122;28;20427;-82
2022/05/04 08:52:17;;;;;;;8.80;6.10;;;16.10;99.90;;;;;;5071720;28;20486;-82
2022/05/04 08:54:45;;;;;;;7.23;5.50;;;16.20;99.90;;;;;;5074036;28;20438;-81
2022/05/04 08:57:12;;;;;;;7.93;5.97;;;;;;;;;;5076688;28;20442;-81
2022/05/04 08:59:39;;;;;;;9.93;6.00;;;16.40;1.00;;;;;;5077939;28;20438;-81
2022/05/04 09:02:06;;;;;;;6.47;5.87;;;16.70;1.00;;;;;;5077536;28;20541;-82
2022/05/04 09:04:33;;;;;;;6.83;6.00;;;16.80;99.90;;;;;;5077346;28;20445;-82
2022/05/04 09:07:01;;;;;;;6.00;5.40;;;;;;;;;;5075000;28;20438;-82
2022/05/04 09:09:35;;;;;;;8.97;7.60;;;16.60;99.90;;;;;;5072371;28;20452;-82
2022/05/04 09:12:03;;;;;;;6.47;5.77;;;17.00;99.90;;;;;;5072273;28;20490;-81
2022/05/04 09:14:39;;;;;;;6.40;5.70;;;17.10;99.90;;;;;;5072653;28;20480;-82
2022/05/04 09:17:09;;;;;;;8.37;6.80;;;17.10;99.90;;;;;;5072155;28;20435;-82
2022/05/04 09:19:36;;;;;;;6.60;5.87;;;;;;;;;;5072156;28;20434;-83
2022/05/04 09:22:04;;;;;;;8.33;4.97;;;17.80;99.90;;;;;;5069493;28;20465;-81
2022/05/04 09:24:32;;;;;;;5.20;4.70;;;17.90;99.90;;;;;;5069615;28;20541;-81
2022/05/04 09:26:59;;;;;;;8.40;5.10;;;18.40;99.90;;;;;;5070443;28;20805;-82
2022/05/04 09:29:34;;;;;;;5.20;4.70;;;18.50;99.90;;;;;;5069197;28;20446;-82
2022/05/04 09:32:16;;;;;;;10.23;5.80;;;18.00;1.00;;;;;;5069819;28;20469;-83
2022/05/04 09:34:43;;;;;;;6.90;5.20;;;;;;;;;;5073515;28;20447;-83
2022/05/04 09:45:39;;;;;;;5.20;4.70;;;;;;;;;;5074007;28;20477;-83
2022/05/04 09:48:07;;;;;;;5.60;5.03;;;17.50;99.90;;;;;;5073841;28;20446;-84
2022/05/04 09:50:39;;;;;;;6.57;5.93;;;17.30;99.90;;;;;;5072908;28;20559;-84
2022/05/04 09:53:06;;;;;;;7.53;4.50;;;17.30;99.90;;;;;;5072286;28;20476;-84
2022/05/04 09:55:36;;;;;;;6.73;5.20;;;17.50;1.00;;;;;;5070844;28;20450;-83
2022/05/04 09:58:03;;;;;;;5.20;4.80;;;17.50;99.90;;;;;;5068876;28;20453;-83
2022/05/04 10:00:30;;;;;;;5.93;5.27;;;17.50;99.90;;;;;;5069339;28;20460;-83
2022/05/04 10:02:57;;;;;;;7.13;5.73;;;17.30;99.90;;;;;;5069628;28;20469;-84
2022/05/04 10:05:24;;;;;;;5.80;5.30;;;17.10;99.90;;;;;;5069730;28;20604;-84
2022/05/04 10:07:52;;;;;;;7.03;4.57;;;17.50;99.90;;;;;;5069157;28;20438;-83
2022/05/04 10:10:21;;;;;;;7.87;5.17;;;17.80;99.90;;;;;;5069400;28;20532;-83
2022/05/04 10:12:49;;;;;;;7.13;6.00;;;17.70;1.00;;;;;;5069660;28;20474;-83
2022/05/04 10:15:17;;;;;;;7.30;4.47;;;17.70;99.90;;;;;;5068897;28;20449;-83
2022/05/04 10:17:49;;;;;;;7.73;4.53;;;18.20;1.00;;;;;;5069733;28;20442;-83
2022/05/04 10:20:19;;;;;;;5.07;3.80;;;17.90;99.90;;;;;;5070134;28;20433;-83
2022/05/04 10:22:51;;;;;;;7.63;4.07;;;17.80;1.00;;;;;;5075752;28;20450;-83
2022/05/04 10:25:19;;;;;;;6.37;4.27;;;17.60;1.00;;;;;;5077465;28;20432;-83
2022/05/04 10:27:47;;;;;;;5.30;4.10;;;18.00;99.90;;;;;;5073835;28;20468;-84
2022/05/04 10:30:34;;;;;;;6.30;4.30;;;18.10;99.90;;;;;;5074335;28;20884;-83
2022/05/04 10:33:03;;;;;;;5.07;4.67;;;18.40;99.90;;;;;;5074085;28;20485;-83
2022/05/04 10:35:34;;;;;;;5.30;4.80;;;18.20;1.00;;;;;;5073670;28;20449;-84
2022/05/04 10:38:07;;;;;;;6.83;5.10;;;17.90;1.00;;;;;;5078652;28;20472;-83
2022/05/04 10:40:35;;;;;;;4.73;4.30;;;18.20;99.90;;;;;;5079950;28;20440;-83
2022/05/04 10:43:03;;;;;;;7.77;5.37;;;18.20;99.90;;;;;;5080577;28;20442;-83
2022/05/04 10:45:33;;;;;;;6.43;5.30;;;18.20;99.90;;;;;;5074536;28;20470;-83
2022/05/04 10:48:14;;;;;;;6.70;5.13;;;17.70;99.90;;;;;;5073114;28;20946;-84
2022/05/04 10:50:48;;;;;;;6.27;5.37;;;17.70;1.00;;;;;;5073661;28;20430;-83
2022/05/04 10:53:19;;;;;;;5.80;4.50;;;17.70;99.90;;;;;;5072361;28;20482;-83
2022/05/04 10:55:55;;;;;;;7.83;6.10;;;17.60;99.90;;;;;;5073802;28;20218;-84
2022/05/04 10:58:31;;;;;;;7.13;5.80;;;17.80;99.90;;;;;;5073449;28;20426;-84
2022/05/04 11:01:13;;;;;;;8.63;5.27;;;17.90;99.90;;;;;;5072224;28;20466;-82
2022/05/04 11:04:03;;;;;;;10.47;6.00;;;17.60;99.90;;;;;;5077877;28;20433;-83
2022/05/04 11:06:31;;;;;;;5.80;5.30;;;17.40;99.90;;;;;;5080167;28;20488;-83
2022/05/04 11:09:04;;;;;;;6.43;5.47;;;17.40;99.90;;;;;;5077830;28;20571;-83
2022/05/04 11:11:32;;;;;;;5.63;4.83;;;17.70;99.90;;;;;;5074170;28;20495;-83
2022/05/04 11:13:59;;;;;;;7.07;4.60;;;;;;;;;;5074030;28;20545;-84
2022/05/04 11:16:28;;;;;;;4.30;3.90;;;17.80;1.00;;;;;;5073364;28;20445;-82
2022/05/04 11:18:55;;;;;;;6.47;5.30;;;17.80;99.90;;;;;;5072048;28;20446;-83
2022/05/04 11:21:22;;;;;;;4.17;3.83;;;18.30;99.90;;;;;;5071740;28;20466;-83
2022/05/04 11:23:50;;;;;;;10.20;5.30;;;18.10;99.90;;;;;;5070493;28;20478;-84
2022/05/04 11:26:19;;;;;;;7.17;4.60;;;18.40;99.90;;;;;;5061241;28;20824;-84
2022/05/04 11:28:45;;;;;;;5.03;4.40;;;18.90;1.00;;;;;;5061538;28;20456;-84
2022/05/04 11:31:13;;;;;;;5.53;4.93;;;;;;;;;;5060953;28;20523;-84
2022/05/04 11:33:43;;;;;;;7.80;5.43;;;19.10;99.90;;;;;;5063770;28;20502;-83
2022/05/04 11:36:09;;;;;;;5.90;5.30;;;19.50;1.00;;;;;;5071925;28;21036;-83
2022/05/04 11:38:36;;;;;;;6.57;4.93;;;19.30;99.90;;;;;;5078124;28;20507;-83
2022/05/04 11:41:03;;;;;;;10.07;5.07;;;;;;;;;;5077300;28;20466;-82
2022/05/04 11:43:33;;;;;;;9.60;5.43;;;19.20;99.90;;;;;;5072229;28;20484;-85
2022/05/04 11:46:03;;;;;;;5.20;4.70;;;19.00;99.90;;;;;;5076164;28;20426;-84
2022/05/04 11:48:31;;;;;;;6.07;4.60;;;;;;;;;;5074325;28;20502;-83
2022/05/04 11:50:59;;;;;;;4.73;4.23;;;18.30;99.90;;;;;;5071965;28;20473;-84
2022/05/04 11:53:26;;;;;;;11.80;6.30;;;;;;;;;;5072430;28;20516;-83
2022/05/04 11:55:53;;;;;;;6.23;4.80;;;18.40;99.90;;;;;;5072385;28;20438;-83
2022/05/04 11:58:19;;;;;;;7.00;6.03;;;17.90;1.00;;;;;;5073076;28;20449;-84
2022/05/04 12:00:46;;;;;;;7.10;6.07;;;18.40;99.90;;;;;;5071205;28;20442;-84
2022/05/04 12:03:13;;;;;;;5.43;4.93;;;;;;;;;;5073689;28;20415;-84
2022/05/04 12:05:41;;;;;;;6.53;4.90;;;;;;;;;;5072517;28;20438;-84
2022/05/04 12:08:10;;;;;;;6.33;5.13;;;18.70;99.90;;;;;;5072662;28;20442;-84
2022/05/04 12:10:37;;;;;;;6.50;5.50;;;;;;;;;;5072175;28;20466;-83
2022/05/04 12:13:07;;;;;;;8.67;6.03;;;18.60;99.90;;;;;;5073001;28;20535;-84
2022/05/04 12:15:34;;;;;;;6.93;5.70;;;18.50;99.90;;;;;;5074694;28;20442;-85
2022/05/04 12:18:02;;;;;;;9.10;5.80;;;18.20;99.90;;;;;;5078615;28;20497;-83
2022/05/04 12:20:31;;;;;;;7.47;5.90;;;;;;;;;;5078931;28;20434;-83
2022/05/04 12:22:58;;;;;;;6.70;5.77;;;;;;;;;;5078629;28;20458;-84
2022/05/04 12:25:26;;;;;;;7.50;5.37;;;18.20;99.90;;;;;;5078361;28;20418;-83
2022/05/04 12:27:55;;;;;;;8.73;5.03;;;18.10;99.90;;;;;;5077113;28;20446;-84
2022/05/04 12:33:10;;;;;;;5.93;5.30;;;18.40;1.00;;;;;;5072045;28;20468;-83
2022/05/04 12:35:39;;;;;;;5.23;4.83;;;18.40;99.90;;;;;;5074211;28;20482;-83
2022/05/04 12:38:06;;;;;;;11.47;9.00;;;18.60;99.90;;;;;;5074484;28;20442;-83
2022/05/04 12:40:35;;;;;;;6.67;5.40;;;18.80;1.00;;;;;;5074062;28;20477;-83
2022/05/04 12:43:04;;;;;;;4.80;4.40;;;18.80;99.90;;;;;;5075113;28;20465;-84
2022/05/04 12:45:32;;;;;;;8.50;5.37;;;;;;;;;;5073637;28;20446;-84
2022/05/04 12:47:59;;;;;;;6.00;5.07;;;19.10;99.90;;;;;;5073340;28;20476;-84
2022/05/04 12:50:28;;;;;;;9.10;5.20;;;19.10;1.00;;;;;;5070800;28;20442;-84
2022/05/04 12:52:56;;;;;;;7.10;4.87;;;19.30;99.90;;;;;;5070589;28;20527;-83
2022/05/04 12:56:45;;;;;;;7.80;5.53;;;19.30;99.90;;;;;;5074520;28;20438;-83
2022/05/04 12:58:14;;;;;;;12.30;11.00;;;19.00;99.90;;;;;;5070014;28;20438;-82
2022/05/04 13:00:41;;;;;;;7.57;6.23;;;18.40;99.90;;;;;;5069152;28;20465;-83
2022/05/04 14:09:56;;;;;;;6.77;5.20;;;19.60;99.90;;;;;;5093542;28;20996;-84
2022/05/04 14:12:22;;;;;;;5.93;5.10;;;;;;;;;;5095561;28;20448;-83
2022/05/04 14:15:06;;;;;;;5.70;4.53;;;;;;;;;;5096198;28;20473;-83
2022/05/04 14:17:32;;;;;;;7.03;5.87;;;20.40;1.00;;;;;;5096050;28;20496;-85
2022/05/04 14:19:59;;;;;;;8.20;5.30;;;20.00;99.90;;;;;;5097130;28;20439;-83
2022/05/04 14:22:25;;;;;;;11.10;6.63;;;20.10;99.90;;;;;;5098460;28;20448;-84
2022/05/04 14:24:53;;;;;;;9.40;6.53;;;19.80;99.90;;;;;;5098636;28;20441;-83
2022/05/04 14:27:20;;;;;;;6.27;5.70;;;19.50;99.90;;;;;;5095761;28;20453;-83
2022/05/04 14:29:50;;;;;;;7.53;6.30;;;19.60;99.90;;;;;;5096691;28;20424;-84
2022/05/04 14:32:17;;;;;;;4.27;3.77;;;19.70;99.90;;;;;;5097822;28;20431;-83
2022/05/04 14:34:44;;;;;;;8.17;6.57;;;19.60;1.00;;;;;;5095007;28;20566;-84
2022/05/04 14:37:10;;;;;;;7.40;5.00;;;19.70;99.90;;;;;;5096043;28;20452;-83
2022/05/04 14:39:37;;;;;;;13.27;6.00;;;;;;;;;;5097736;28;20464;-84
2022/05/04 14:42:07;;;;;;;8.00;7.20;;;19.80;99.90;;;;;;5099059;28;20468;-84
2022/05/04 14:44:34;;;;;;;6.13;5.53;;;;;;;;;;5101293;28;20437;-83
2022/05/04 14:47:01;;;;;;;6.73;5.80;;;;;;;;;;5100764;28;20488;-83
2022/05/04 14:49:28;;;;;;;5.90;5.40;;;19.70;99.90;;;;;;5101447;28;20465;-82
2022/05/04 14:51:55;;;;;;;5.23;4.83;;;19.40;99.90;;;;;;5101005;28;20457;-83
2022/05/04 14:54:22;;;;;;;6.00;5.37;;;;;;;;;;5095529;28;20495;-83